Time;durP1;ratioP1;P1;durP2;ratioP2;P2;SDS_P1;SDS_P2;PMS_P1;PMS_P2;Temp;Humidity;BMP_temperature;BMP_pressure;BME280_temperature;BME280_humidity;BME280_pressure;Samples;Min_cycle;Max_cycle;Signal;HPM_P1;HPM_P2
2021/05/27 00:00:33;;;;;;;11.15;2.92;;;20.00;61.30;;;;;;5016850;28;20432;-69
2021/05/27 00:02:59;;;;;;;12.32;2.88;;;20.00;61.80;;;;;;5016476;28;20061;-74
2021/05/27 00:05:26;;;;;;;10.38;2.75;;;20.00;61.40;;;;;;5016626;28;20463;-70
2021/05/27 00:07:54;;;;;;;8.88;3.25;;;20.00;61.80;;;;;;5016361;28;20468;-72
2021/05/27 00:10:23;;;;;;;11.90;2.53;;;20.00;61.50;;;;;;5015494;28;20034;-74
2021/05/27 00:12:49;;;;;;;17.95;2.85;;;20.00;61.90;;;;;;5031666;28;20034;-70
2021/05/27 00:15:18;;;;;;;8.55;2.70;;;19.90;62.20;;;;;;5016424;28;20368;-69
2021/05/27 00:17:43;;;;;;;10.07;2.65;;;19.90;61.70;;;;;;5016471;28;20053;-70
2021/05/27 00:20:11;;;;;;;9.07;2.85;;;19.90;62.00;;;;;;5016293;28;20085;-70
2021/05/27 00:22:37;;;;;;;10.45;2.90;;;19.90;62.20;;;;;;5016260;28;20030;-73
2021/05/27 00:25:05;;;;;;;9.43;2.75;;;19.90;62.80;;;;;;5016265;28;20383;-70
2021/05/27 00:27:31;;;;;;;11.35;2.60;;;19.90;61.80;;;;;;5031095;28;20029;-70
2021/05/27 00:29:57;;;;;;;9.85;3.17;;;19.80;62.00;;;;;;5016050;28;20025;-74
2021/05/27 00:32:23;;;;;;;11.20;2.78;;;19.80;61.80;;;;;;5016006;28;20048;-74
2021/05/27 00:34:48;;;;;;;10.63;2.50;;;19.70;61.90;;;;;;5014632;28;20095;-70
2021/05/27 00:37:14;;;;;;;9.65;2.90;;;19.70;62.10;;;;;;5015924;28;20034;-73
2021/05/27 00:39:40;;;;;;;8.88;2.67;;;19.70;62.20;;;;;;5016173;28;20026;-70
2021/05/27 00:42:06;;;;;;;11.88;3.10;;;19.70;62.10;;;;;;5031038;28;20379;-70
2021/05/27 00:44:32;;;;;;;9.73;2.70;;;19.70;62.80;;;;;;5015864;28;20026;-72
2021/05/27 00:47:00;;;;;;;10.82;3.05;;;19.70;62.80;;;;;;5015956;28;20026;-71
2021/05/27 00:49:27;;;;;;;10.90;3.10;;;19.70;63.10;;;;;;5015178;28;20034;-70
2021/05/27 00:51:53;;;;;;;7.85;2.47;;;19.60;62.80;;;;;;5016234;28;20383;-76
2021/05/27 00:54:20;;;;;;;9.95;2.67;;;19.60;63.00;;;;;;5015040;28;20433;-70
2021/05/27 00:56:48;;;;;;;8.30;2.70;;;19.60;63.50;;;;;;5030720;28;20034;-70
2021/05/27 00:59:14;;;;;;;8.30;2.85;;;19.50;63.70;;;;;;5015441;28;20116;-72
2021/05/27 01:01:41;;;;;;;11.13;2.42;;;19.50;63.40;;;;;;5015436;28;20053;-72
2021/05/27 01:04:07;;;;;;;13.13;3.03;;;19.50;63.50;;;;;;5015364;28;20379;-71
2021/05/27 01:06:33;;;;;;;11.18;2.78;;;19.40;62.90;;;;;;5015254;28;20030;-70
2021/05/27 01:09:00;;;;;;;9.02;2.75;;;19.40;63.30;;;;;;5015313;28;20064;-71
2021/05/27 01:11:26;;;;;;;9.90;2.97;;;19.40;63.10;;;;;;5015163;28;20021;-76
2021/05/27 01:13:52;;;;;;;10.55;2.97;;;19.40;63.20;;;;;;5015327;28;20383;-70
2021/05/27 01:16:20;;;;;;;13.57;3.28;;;19.30;63.30;;;;;;5015239;28;20470;-73
2021/05/27 01:18:47;;;;;;;11.85;2.70;;;19.40;63.80;;;;;;5013704;28;20081;-70
2021/05/27 01:21:13;;;;;;;14.95;3.58;;;19.40;63.10;;;;;;5030267;28;20061;-71
2021/05/27 01:23:39;;;;;;;14.98;3.33;;;19.40;63.50;;;;;;5014930;28;20577;-70
2021/05/27 01:26:12;;;;;;;12.35;3.92;;;19.40;63.50;;;;;;5014768;28;20038;-72
2021/05/27 01:28:41;;;;;;;14.02;4.18;;;19.30;62.60;;;;;;5014749;28;20065;-69
2021/05/27 01:31:10;;;;;;;12.60;4.70;;;19.10;62.30;;;;;;5015054;28;20021;-75
2021/05/27 01:33:37;;;;;;;10.38;3.88;;;18.90;62.10;;;;;;5014834;28;20387;-75
2021/05/27 01:36:05;;;;;;;11.13;3.90;;;18.80;61.60;;;;;;5030275;28;20036;-70
2021/05/27 01:38:33;;;;;;;14.18;4.93;;;18.90;61.40;;;;;;5014597;28;20026;-71
2021/05/27 01:41:02;;;;;;;14.80;4.30;;;18.80;59.60;;;;;;5029996;28;20539;-69
2021/05/27 01:43:28;;;;;;;18.35;5.25;;;18.90;61.00;;;;;;5014649;28;20088;-73
2021/05/27 01:45:55;;;;;;;19.13;5.10;;;18.90;60.30;;;;;;5014691;28;20017;-69
2021/05/27 01:48:21;;;;;;;11.63;4.85;;;18.90;60.00;;;;;;5014768;28;20026;-74
2021/05/27 01:50:48;;;;;;;12.18;4.65;;;18.90;59.60;;;;;;5014696;28;20022;-69
2021/05/27 01:53:15;;;;;;;13.52;4.60;;;18.90;59.50;;;;;;5015478;28;20030;-69
2021/05/27 01:55:43;;;;;;;12.30;4.30;;;18.90;59.30;;;;;;5017001;28;20542;-68
2021/05/27 01:58:10;;;;;;;11.32;4.35;;;18.90;59.30;;;;;;5014459;28;20030;-69
2021/05/27 02:00:37;;;;;;;10.02;4.47;;;18.90;58.80;;;;;;5014480;28;20052;-71
2021/05/27 02:03:02;;;;;;;15.10;4.50;;;18.90;58.80;;;;;;5014291;28;20038;-72
2021/05/27 02:05:28;;;;;;;10.48;4.57;;;18.80;58.40;;;;;;5014066;28;20029;-74
2021/05/27 02:07:54;;;;;;;11.38;4.47;;;18.80;58.40;;;;;;5014417;28;20037;-69
2021/05/27 02:10:20;;;;;;;15.88;5.38;;;18.80;58.30;;;;;;5014432;28;20468;-72
2021/05/27 02:12:46;;;;;;;12.65;4.75;;;18.80;58.10;;;;;;5014374;28;20082;-70
2021/05/27 02:15:13;;;;;;;11.43;4.15;;;18.80;58.30;;;;;;5029291;28;20030;-69
2021/05/27 02:17:40;;;;;;;14.63;4.88;;;18.80;57.40;;;;;;5014143;28;20034;-70
2021/05/27 02:20:08;;;;;;;16.83;5.25;;;18.80;57.40;;;;;;5013873;28;20057;-68
2021/05/27 02:22:33;;;;;;;9.70;4.75;;;18.80;57.70;;;;;;5014041;28;20042;-73
2021/05/27 02:24:59;;;;;;;11.85;5.18;;;18.80;58.10;;;;;;5013944;28;20069;-74
2021/05/27 02:27:25;;;;;;;12.55;4.63;;;18.80;58.00;;;;;;5029189;28;20036;-73
2021/05/27 02:29:51;;;;;;;16.55;4.60;;;18.80;57.80;;;;;;5013849;28;20018;-70
2021/05/27 02:32:18;;;;;;;15.35;4.55;;;18.80;57.70;;;;;;5029151;28;20031;-76
2021/05/27 02:34:44;;;;;;;10.55;4.05;;;18.80;57.40;;;;;;5013872;28;20034;-73
2021/05/27 02:37:10;;;;;;;12.55;4.20;;;18.80;57.30;;;;;;5013710;28;20336;-70
2021/05/27 02:39:36;;;;;;;11.18;4.53;;;18.80;57.30;;;;;;5013871;28;20033;-71
2021/05/27 02:42:02;;;;;;;11.63;3.92;;;18.70;56.90;;;;;;5014270;28;20117;-69
2021/05/27 02:44:27;;;;;;;9.85;3.83;;;18.80;56.90;;;;;;5013690;28;20017;-68
2021/05/27 02:46:53;;;;;;;11.55;4.22;;;18.80;56.40;;;;;;5013705;28;20033;-71
2021/05/27 02:49:20;;;;;;;15.48;4.20;;;18.80;56.40;;;;;;5014030;28;20145;-74
2021/05/27 02:51:47;;;;;;;7.93;3.50;;;18.80;56.20;;;;;;5013998;28;20072;-72
2021/05/27 02:54:13;;;;;;;10.75;3.65;;;18.80;56.10;;;;;;5014153;28;20390;-70
2021/05/27 02:56:39;;;;;;;13.05;3.70;;;18.80;56.00;;;;;;5013911;28;20022;-69
2021/05/27 02:59:05;;;;;;;10.00;3.75;;;18.80;55.80;;;;;;5014078;28;20395;-70
2021/05/27 03:01:31;;;;;;;10.98;3.45;;;18.70;55.70;;;;;;5014867;28;20038;-70
2021/05/27 03:03:57;;;;;;;11.30;3.78;;;18.80;55.50;;;;;;5016607;28;20467;-69
2021/05/27 03:06:23;;;;;;;9.25;3.38;;;18.80;55.60;;;;;;5017399;28;20049;-69
2021/05/27 03:08:49;;;;;;;11.05;3.80;;;18.80;55.60;;;;;;5031958;28;20037;-69
2021/05/27 03:11:15;;;;;;;14.88;4.32;;;18.70;55.70;;;;;;5031471;28;20072;-69
2021/05/27 03:13:40;;;;;;;8.68;3.15;;;18.70;55.50;;;;;;5015796;28;20479;-69
2021/05/27 03:16:06;;;;;;;10.35;3.10;;;18.70;55.50;;;;;;5013812;28;20033;-69
2021/05/27 03:18:32;;;;;;;7.38;3.20;;;18.60;55.20;;;;;;5016377;28;20032;-76
2021/05/27 03:20:59;;;;;;;8.10;3.15;;;18.60;55.50;;;;;;5017339;28;20037;-71
2021/05/27 03:23:25;;;;;;;9.57;3.10;;;18.60;55.40;;;;;;5017464;28;20064;-69
2021/05/27 03:25:51;;;;;;;10.98;2.80;;;18.70;55.30;;;;;;5017255;28;20053;-72
2021/05/27 03:28:17;;;;;;;9.30;3.05;;;18.70;55.00;;;;;;5015754;28;20033;-69
2021/05/27 03:30:43;;;;;;;11.93;2.90;;;18.70;55.10;;;;;;5017397;28;20018;-72
2021/05/27 03:33:09;;;;;;;11.15;3.05;;;18.80;54.80;;;;;;5017448;28;20467;-70
2021/05/27 03:35:35;;;;;;;8.25;2.55;;;18.70;54.80;;;;;;5017140;28;20428;-75
2021/05/27 03:38:01;;;;;;;9.38;3.17;;;18.70;55.10;;;;;;5015698;28;20021;-70
2021/05/27 03:40:26;;;;;;;9.27;2.88;;;18.70;55.20;;;;;;5016922;28;20053;-69
2021/05/27 03:42:54;;;;;;;11.13;3.38;;;18.70;55.00;;;;;;5017058;28;20065;-69
2021/05/27 03:45:25;;;;;;;8.02;2.95;;;18.60;55.30;;;;;;5017300;28;20527;-69
2021/05/27 03:47:51;;;;;;;11.32;3.47;;;18.60;55.40;;;;;;5016961;28;20034;-75
2021/05/27 03:50:20;;;;;;;8.60;2.97;;;18.60;55.20;;;;;;5016831;28;20072;-68
2021/05/27 03:52:46;;;;;;;7.38;3.05;;;18.60;55.40;;;;;;5017053;28;20065;-70
2021/05/27 03:55:14;;;;;;;8.18;2.80;;;18.70;55.40;;;;;;5016893;28;20022;-70
2021/05/27 03:57:41;;;;;;;8.63;3.55;;;18.70;56.20;;;;;;5016864;28;20037;-71
2021/05/27 04:02:55;;;;;;;10.00;3.63;;;18.80;55.60;;;;;;5016796;28;20100;-68
2021/05/27 04:08:05;;;;;;;11.70;3.35;;;18.80;56.00;;;;;;5016484;28;20088;-68
2021/05/27 04:10:34;;;;;;;7.85;3.10;;;18.80;56.20;;;;;;5016374;28;20044;-70
2021/05/27 04:13:00;;;;;;;10.35;3.08;;;18.90;55.00;;;;;;5016559;28;20064;-71
2021/05/27 04:15:28;;;;;;;8.98;3.38;;;18.90;55.90;;;;;;5016503;28;20114;-68
2021/05/27 04:18:11;;;;;;;13.98;3.63;;;18.90;56.10;;;;;;5031510;28;20092;-73
2021/05/27 04:20:41;;;;;;;10.98;3.50;;;18.90;56.00;;;;;;5016207;28;20050;-69
2021/05/27 04:23:12;;;;;;;13.18;3.67;;;18.90;55.00;;;;;;5016364;28;20050;-68
2021/05/27 04:25:42;;;;;;;10.88;3.50;;;18.90;56.70;;;;;;5016361;28;20072;-72
2021/05/27 04:28:12;;;;;;;12.70;3.72;;;18.80;56.80;;;;;;5016018;28;20196;-68
2021/05/27 04:33:24;;;;;;;9.60;3.70;;;18.90;56.30;;;;;;5015631;28;20044;-68
2021/05/27 04:35:51;;;;;;;7.25;3.30;;;18.80;56.90;;;;;;5016233;28;20061;-70
2021/05/27 04:38:21;;;;;;;14.85;4.03;;;18.80;56.60;;;;;;5031378;28;20030;-69
2021/05/27 04:40:48;;;;;;;13.68;3.50;;;18.90;56.50;;;;;;5016149;28;20030;-71
2021/05/27 04:43:16;;;;;;;11.32;3.83;;;18.90;56.50;;;;;;5030870;28;20085;-68
2021/05/27 04:45:42;;;;;;;10.00;3.42;;;18.90;56.80;;;;;;5015841;28;20030;-73
2021/05/27 04:48:10;;;;;;;9.00;3.38;;;18.90;56.80;;;;;;5015808;28;20360;-69
2021/05/27 04:50:37;;;;;;;12.02;3.25;;;18.90;56.80;;;;;;5015943;28;20033;-75
2021/05/27 04:53:04;;;;;;;11.68;3.95;;;18.80;57.20;;;;;;5030971;28;20030;-68
2021/05/27 04:55:31;;;;;;;11.38;3.50;;;18.80;57.40;;;;;;5015651;28;20076;-69
2021/05/27 04:57:57;;;;;;;12.88;3.63;;;18.80;57.30;;;;;;5030593;28;20084;-72
2021/05/27 05:00:24;;;;;;;10.45;3.30;;;18.80;57.10;;;;;;5015717;28;20025;-73
2021/05/27 05:03:06;;;;;;;13.80;3.90;;;18.70;57.30;;;;;;5031031;28;20056;-68
2021/05/27 05:05:34;;;;;;;14.00;4.20;;;18.80;56.90;;;;;;5029462;28;20030;-72
2021/05/27 05:08:00;;;;;;;11.35;3.70;;;18.90;57.30;;;;;;5015355;28;20024;-72
2021/05/27 05:10:28;;;;;;;12.63;3.55;;;19.00;57.20;;;;;;5015328;28;20018;-71
2021/05/27 05:12:55;;;;;;;11.50;3.50;;;19.00;57.50;;;;;;5015504;28;20164;-71
2021/05/27 05:15:25;;;;;;;7.93;3.58;;;19.10;57.60;;;;;;5015451;28;20026;-70
2021/05/27 05:17:56;;;;;;;10.95;3.97;;;19.10;57.30;;;;;;5015051;28;20549;-69
2021/05/27 05:20:43;;;;;;;18.75;4.13;;;18.90;57.30;;;;;;5014993;28;20054;-68
2021/05/27 05:23:10;;;;;;;9.10;3.28;;;18.90;57.60;;;;;;5027669;28;20046;-68
2021/05/27 05:25:38;;;;;;;13.10;3.67;;;18.90;57.70;;;;;;5013393;28;20029;-69
2021/05/27 05:28:05;;;;;;;13.85;3.58;;;18.80;57.60;;;;;;5014789;28;20501;-68
2021/05/27 05:30:31;;;;;;;12.50;3.90;;;18.80;57.60;;;;;;5029858;28;20037;-73
2021/05/27 05:32:58;;;;;;;11.07;4.30;;;18.80;57.50;;;;;;5014459;28;20025;-74
2021/05/27 05:35:25;;;;;;;11.00;3.50;;;18.80;57.70;;;;;;5014589;28;20042;-67
2021/05/27 05:37:52;;;;;;;14.40;3.95;;;18.80;57.50;;;;;;5014333;28;20494;-69
2021/05/27 05:40:21;;;;;;;8.68;3.80;;;18.80;57.40;;;;;;5013771;28;20037;-68
2021/05/27 05:42:47;;;;;;;11.60;3.47;;;18.70;57.70;;;;;;5029674;28;20049;-71
2021/05/27 05:45:17;;;;;;;10.88;3.45;;;18.70;57.30;;;;;;5013032;28;20026;-67
2021/05/27 05:47:48;;;;;;;12.30;3.45;;;18.80;57.40;;;;;;5014265;28;20026;-70
2021/05/27 05:50:44;;;;;;;12.77;3.95;;;18.70;56.10;;;;;;5014276;28;20026;-69
2021/05/27 05:53:01;;;;;;;12.35;4.07;;;18.70;57.20;;;;;;5013829;28;20488;-69
2021/05/27 05:55:27;;;;;;;9.68;3.53;;;18.80;57.30;;;;;;5014176;28;20033;-78
2021/05/27 05:57:55;;;;;;;13.07;3.83;;;18.80;57.00;;;;;;5013816;28;20029;-69
2021/05/27 06:00:22;;;;;;;11.45;3.03;;;18.90;56.20;;;;;;5013206;28;20040;-70
2021/05/27 06:02:48;;;;;;;11.13;3.90;;;19.00;56.60;;;;;;5029194;28;20041;-74
2021/05/27 06:05:16;;;;;;;8.82;3.50;;;19.10;56.50;;;;;;5014403;28;20018;-70
2021/05/27 06:07:44;;;;;;;10.15;3.38;;;19.10;55.90;;;;;;5014367;28;20037;-68
2021/05/27 06:10:14;;;;;;;13.15;3.95;;;19.10;56.20;;;;;;5029221;28;20022;-69
2021/05/27 06:12:41;;;;;;;11.52;3.45;;;19.20;55.30;;;;;;5014125;28;20018;-67
2021/05/27 06:15:09;;;;;;;11.60;3.60;;;19.50;55.70;;;;;;5013311;28;20145;-67
2021/05/27 06:17:35;;;;;;;11.90;3.42;;;19.80;54.90;;;;;;5014454;28;20041;-67
2021/05/27 06:20:05;;;;;;;11.30;3.30;;;20.20;54.50;;;;;;5028748;28;20046;-77
2021/05/27 06:22:32;;;;;;;10.02;3.42;;;20.40;53.00;;;;;;5013773;28;20422;-70
2021/05/27 06:25:00;;;;;;;13.05;3.35;;;20.50;53.60;;;;;;5013857;28;20394;-68
2021/05/27 06:27:27;;;;;;;10.68;3.63;;;20.70;53.60;;;;;;5013609;28;20111;-73
2021/05/27 06:29:53;;;;;;;13.93;3.72;;;20.80;52.50;;;;;;5014054;28;20084;-70
2021/05/27 06:32:19;;;;;;;12.15;2.80;;;21.00;53.10;;;;;;5014133;28;20427;-75
2021/05/27 06:34:52;;;;;;;12.50;3.65;;;21.20;52.40;;;;;;5013634;28;20018;-70
2021/05/27 06:37:22;;;;;;;12.83;3.30;;;21.60;53.00;;;;;;5013816;28;20042;-66
2021/05/27 06:39:49;;;;;;;16.38;3.30;;;21.80;51.70;;;;;;5013607;28;20323;-71
2021/05/27 06:42:30;;;;;;;14.10;3.45;;;22.10;50.20;;;;;;5014691;28;20037;-83
2021/05/27 06:44:56;;;;;;;14.02;2.85;;;22.20;49.70;;;;;;5014193;28;20132;-70
2021/05/27 06:47:21;;;;;;;10.00;2.75;;;22.30;50.60;;;;;;5013807;28;20128;-81
2021/05/27 06:49:48;;;;;;;15.15;3.70;;;22.30;50.20;;;;;;5013886;28;20531;-69
2021/05/27 06:52:16;;;;;;;9.55;2.75;;;22.30;50.60;;;;;;5013468;28;20058;-70
2021/05/27 06:54:53;;;;;;;13.10;3.35;;;22.10;49.30;;;;;;4996383;28;20050;-69
2021/05/27 06:57:20;;;;;;;10.88;2.88;;;22.00;50.40;;;;;;5014380;28;20029;-69
2021/05/27 06:59:47;;;;;;;13.13;3.00;;;21.90;50.60;;;;;;5014204;28;20034;-76
2021/05/27 07:02:34;;;;;;;11.13;3.03;;;21.90;49.90;;;;;;5013999;28;20455;-77
2021/05/27 07:05:00;;;;;;;12.00;3.10;;;22.10;49.70;;;;;;5013747;28;20030;-71
2021/05/27 07:07:27;;;;;;;8.63;2.88;;;22.40;50.30;;;;;;5015320;28;20062;-70
2021/05/27 07:09:53;;;;;;;12.07;3.08;;;22.60;48.30;;;;;;5029952;28;20438;-84
2021/05/27 07:12:18;;;;;;;10.38;2.78;;;22.70;49.20;;;;;;5013728;28;20030;-69
2021/05/27 07:14:45;;;;;;;13.10;3.00;;;22.90;48.70;;;;;;5014656;28;20356;-74
2021/05/27 07:17:10;;;;;;;12.70;3.25;;;22.70;48.60;;;;;;5014928;28;20030;-75
2021/05/27 07:19:38;;;;;;;17.05;3.10;;;22.80;48.50;;;;;;5014118;28;20057;-72
2021/05/27 07:22:03;;;;;;;12.27;3.22;;;22.80;48.30;;;;;;5031045;28;20046;-68
2021/05/27 07:24:29;;;;;;;12.20;3.20;;;22.80;48.60;;;;;;5020918;28;20029;-67
2021/05/27 07:26:55;;;;;;;9.85;2.88;;;22.90;48.10;;;;;;5014820;28;20029;-69
2021/05/27 07:29:20;;;;;;;9.52;3.03;;;23.00;47.90;;;;;;5014743;28;20425;-69
2021/05/27 07:31:48;;;;;;;9.63;3.50;;;23.00;47.70;;;;;;5015045;28;20053;-71
2021/05/27 07:34:14;;;;;;;11.65;3.53;;;23.10;48.10;;;;;;5014656;28;20022;-75
2021/05/27 07:36:40;;;;;;;10.98;3.35;;;23.20;47.70;;;;;;5050370;28;20076;-69
2021/05/27 07:39:06;;;;;;;11.60;3.20;;;23.30;47.70;;;;;;5014530;28;20109;-74
2021/05/27 07:41:32;;;;;;;10.95;3.33;;;23.50;47.30;;;;;;5015879;28;20423;-74
2021/05/27 07:43:57;;;;;;;11.43;3.22;;;23.60;47.30;;;;;;5015574;28;20038;-72
2021/05/27 07:46:23;;;;;;;10.20;3.10;;;23.70;46.50;;;;;;5016293;28;20044;-76
2021/05/27 07:48:50;;;;;;;10.80;3.58;;;23.70;46.80;;;;;;5014801;28;20018;-69
2021/05/27 07:51:17;;;;;;;13.85;3.13;;;23.80;46.00;;;;;;5015085;28;20038;-74
2021/05/27 07:53:49;;;;;;;11.43;3.00;;;23.90;45.30;;;;;;5014947;28;20032;-78
2021/05/27 07:56:15;;;;;;;12.40;3.25;;;24.00;45.70;;;;;;5015046;28;20026;-74
2021/05/27 07:58:41;;;;;;;13.80;3.10;;;24.00;46.20;;;;;;5013775;28;20032;-69
2021/05/27 08:01:06;;;;;;;29.15;4.70;;;24.00;46.10;;;;;;5014307;28;20026;-68
2021/05/27 08:03:32;;;;;;;10.18;2.85;;;24.00;46.10;;;;;;5016240;28;20481;-68
2021/05/27 08:05:58;;;;;;;276.75;26.50;;;24.00;45.80;;;;;;5020756;28;20061;-70
2021/05/27 08:08:24;;;;;;;33.22;5.55;;;24.10;46.10;;;;;;5021440;28;20017;-68
2021/05/27 08:10:49;;;;;;;21.05;3.55;;;24.10;45.80;;;;;;5020939;28;20033;-78
2021/05/27 08:13:15;;;;;;;8.25;2.40;;;24.10;45.40;;;;;;5017828;28;20040;-81
2021/05/27 08:15:42;;;;;;;9.98;2.53;;;24.10;45.30;;;;;;5017939;28;20029;-76
2021/05/27 08:18:07;;;;;;;9.10;2.33;;;24.00;44.80;;;;;;5016235;28;20030;-75
2021/05/27 08:20:33;;;;;;;10.05;2.67;;;24.00;44.50;;;;;;5016142;28;20054;-69
2021/05/27 08:22:59;;;;;;;10.60;2.55;;;23.90;44.30;;;;;;5016565;28;20534;-70
2021/05/27 08:25:25;;;;;;;14.82;3.00;;;23.90;44.00;;;;;;5016045;28;20429;-68
2021/05/27 08:27:51;;;;;;;7.85;2.53;;;23.80;44.00;;;;;;5016041;28;20026;-74
2021/05/27 08:30:18;;;;;;;11.43;3.17;;;23.70;43.70;;;;;;5016691;28;20387;-70
2021/05/27 08:32:44;;;;;;;19.80;4.00;;;23.50;42.80;;;;;;5017150;28;20110;-68
2021/05/27 08:35:10;;;;;;;54.85;8.85;;;23.50;43.80;;;;;;5016493;28;20097;-67
2021/05/27 08:37:36;;;;;;;13.55;3.47;;;23.50;43.40;;;;;;5014922;28;20044;-66
2021/05/27 08:40:02;;;;;;;11.10;3.08;;;23.50;43.60;;;;;;5018446;28;20030;-67
2021/05/27 08:42:30;;;;;;;15.55;3.50;;;23.40;43.60;;;;;;5034160;28;20037;-70
2021/05/27 08:44:58;;;;;;;19.13;4.15;;;23.30;44.10;;;;;;5036163;28;20555;-69
2021/05/27 08:47:28;;;;;;;10.48;2.72;;;23.40;44.40;;;;;;5024664;28;20025;-67
2021/05/27 08:49:55;;;;;;;13.52;3.28;;;23.40;42.40;;;;;;5017189;28;20045;-70
2021/05/27 08:52:21;;;;;;;9.73;2.50;;;23.40;43.30;;;;;;5017204;28;20030;-69
2021/05/27 08:54:47;;;;;;;11.05;2.65;;;23.40;43.10;;;;;;5023828;28;20043;-71
2021/05/27 08:57:13;;;;;;;8.55;2.67;;;23.30;43.00;;;;;;5035892;28;20014;-70
2021/05/27 08:59:38;;;;;;;10.05;2.60;;;23.30;43.60;;;;;;5025118;28;20040;-71
2021/05/27 09:02:09;;;;;;;7.72;2.60;;;23.30;43.30;;;;;;5016055;28;20026;-72
2021/05/27 09:04:38;;;;;;;10.30;2.78;;;23.40;43.70;;;;;;5018974;28;20034;-71
2021/05/27 09:07:04;;;;;;;10.80;2.90;;;23.40;43.90;;;;;;5015891;28;20022;-70
2021/05/27 09:09:52;;;;;;;9.73;2.72;;;23.50;43.20;;;;;;5028459;28;20088;-70
2021/05/27 09:12:28;;;;;;;5.90;2.25;;;23.40;41.80;;;;;;5034995;28;20371;-73
2021/05/27 09:14:56;;;;;;;6.90;2.40;;;23.40;42.60;;;;;;5015382;28;20037;-68
2021/05/27 09:17:41;;;;;;;7.15;2.03;;;23.30;39.80;;;;;;5016545;28;20419;-70
2021/05/27 09:20:12;;;;;;;9.20;2.60;;;23.30;41.50;;;;;;5019849;28;20132;-73
2021/05/27 09:22:39;;;;;;;11.65;3.03;;;23.40;40.90;;;;;;5033395;28;20509;-72
2021/05/27 09:25:06;;;;;;;10.13;2.90;;;23.50;41.40;;;;;;5018556;28;20033;-67
2021/05/27 09:27:50;;;;;;;10.80;2.25;;;23.50;41.20;;;;;;5035732;28;20482;-78
2021/05/27 09:30:16;;;;;;;7.55;2.15;;;23.50;40.20;;;;;;5034430;28;20095;-69
2021/05/27 09:32:50;;;;;;;13.63;2.53;;;23.50;40.00;;;;;;5017345;28;20045;-68
2021/05/27 09:35:17;;;;;;;11.60;2.13;;;23.60;40.60;;;;;;5019529;28;20026;-69
2021/05/27 09:37:47;;;;;;;10.98;2.65;;;23.70;41.00;;;;;;5016531;28;21291;-72
2021/05/27 09:40:30;;;;;;;12.40;2.40;;;23.80;40.90;;;;;;5028566;28;20054;-81
2021/05/27 09:42:57;;;;;;;10.43;2.53;;;23.70;39.20;;;;;;5015244;28;20076;-78
2021/05/27 09:45:24;;;;;;;6.25;1.67;;;23.70;40.50;;;;;;5015475;28;20092;-76
2021/05/27 09:47:49;;;;;;;6.68;2.05;;;23.70;39.80;;;;;;5015048;28;20026;-74
2021/05/27 09:50:15;;;;;;;42.70;4.45;;;23.80;40.10;;;;;;5017162;28;20048;-71
2021/05/27 09:52:48;;;;;;;9.98;2.25;;;23.80;40.40;;;;;;5015246;28;20080;-70
2021/05/27 09:55:14;;;;;;;10.67;2.37;;;23.90;40.00;;;;;;5014805;28;20026;-73
2021/05/27 09:57:42;;;;;;;33.67;4.28;;;23.90;39.10;;;;;;5014480;28;20030;-70
2021/05/27 10:00:25;;;;;;;20.05;4.00;;;23.80;39.40;;;;;;5014649;28;20124;-69
2021/05/27 10:02:52;;;;;;;8.80;2.07;;;23.90;39.70;;;;;;5014454;28;20092;-75
2021/05/27 10:05:19;;;;;;;12.98;2.55;;;24.00;39.30;;;;;;5014409;28;20745;-72
2021/05/27 10:07:53;;;;;;;9.95;2.15;;;24.10;39.30;;;;;;5014401;28;20424;-74
2021/05/27 10:10:24;;;;;;;9.50;2.25;;;24.00;37.60;;;;;;5014296;28;20022;-72
2021/05/27 10:12:52;;;;;;;8.93;1.98;;;24.00;38.90;;;;;;5029351;28;20037;-69
2021/05/27 10:15:20;;;;;;;9.75;2.28;;;24.00;38.50;;;;;;5013128;28;20017;-71
2021/05/27 10:17:46;;;;;;;5.97;2.30;;;23.90;38.20;;;;;;5014267;28;20034;-72
2021/05/27 10:20:21;;;;;;;7.20;2.15;;;24.00;38.60;;;;;;5014684;28;20105;-70
2021/05/27 10:22:48;;;;;;;8.18;2.10;;;24.10;38.70;;;;;;5013001;28;20395;-72
2021/05/27 10:25:17;;;;;;;8.23;2.10;;;24.10;38.30;;;;;;5014130;28;20024;-75
2021/05/27 10:27:47;;;;;;;9.23;2.55;;;24.20;38.80;;;;;;5012042;28;20030;-73
2021/05/27 10:30:14;;;;;;;9.60;2.20;;;24.30;39.60;;;;;;5028271;28;20025;-76
2021/05/27 10:32:48;;;;;;;8.43;1.95;;;24.40;39.00;;;;;;5013267;28;20018;-73
2021/05/27 10:35:15;;;;;;;7.05;1.80;;;24.40;39.10;;;;;;5013626;28;20018;-74
2021/05/27 10:37:42;;;;;;;7.35;2.20;;;24.40;39.10;;;;;;5045202;28;20026;-76
2021/05/27 10:40:11;;;;;;;8.55;1.98;;;24.40;38.80;;;;;;5013385;28;20030;-78
2021/05/27 10:42:55;;;;;;;6.78;2.15;;;24.30;38.70;;;;;;5013440;28;20410;-73
2021/05/27 10:45:23;;;;;;;8.07;2.58;;;24.40;38.80;;;;;;5013609;28;20014;-73
2021/05/27 10:48:23;;;;;;;6.70;1.92;;;24.40;39.50;;;;;;5013106;28;20026;-73
2021/05/27 10:50:54;;;;;;;7.00;2.20;;;24.50;38.80;;;;;;5012342;28;20034;-75
2021/05/27 10:53:49;;;;;;;9.77;2.20;;;24.70;39.30;;;;;;5031379;28;20390;-74
2021/05/27 10:56:38;;;;;;;7.57;2.22;;;24.80;37.30;;;;;;5061079;28;20092;-73
2021/05/27 10:59:09;;;;;;;9.10;2.30;;;24.80;37.80;;;;;;5032755;28;20109;-79
2021/05/27 11:01:35;;;;;;;7.47;2.55;;;24.90;39.50;;;;;;5033086;28;20040;-73
2021/05/27 11:04:01;;;;;;;13.57;3.40;;;24.90;40.20;;;;;;5033173;28;20034;-76
2021/05/27 11:06:37;;;;;;;6.78;2.28;;;25.00;40.80;;;;;;5032718;28;20028;-71
2021/05/27 11:09:16;;;;;;;10.82;2.58;;;25.00;39.70;;;;;;5031321;28;20126;-72
2021/05/27 11:11:48;;;;;;;8.75;2.10;;;25.10;39.60;;;;;;5023102;28;20034;-76
2021/05/27 11:14:24;;;;;;;11.63;2.58;;;25.10;39.50;;;;;;5014831;28;20053;-76
2021/05/27 11:22:37;;;;;;;10.10;2.30;;;25.30;39.00;;;;;;5027045;28;20037;-75
2021/05/27 11:27:45;;;;;;;10.48;2.25;;;25.30;39.80;;;;;;5032909;28;20026;-78
2021/05/27 11:30:17;;;;;;;11.88;2.03;;;25.40;40.00;;;;;;5032473;28;20486;-71
2021/05/27 11:32:44;;;;;;;8.00;2.15;;;25.40;40.00;;;;;;5032754;28;20026;-73
2021/05/27 11:35:10;;;;;;;5.65;1.70;;;25.40;39.80;;;;;;5032574;28;20029;-75
2021/05/27 11:37:38;;;;;;;8.07;1.95;;;25.40;39.40;;;;;;5032588;28;20021;-71
2021/05/27 11:40:07;;;;;;;130.95;13.15;;;25.50;39.60;;;;;;5035305;28;20032;-75
2021/05/27 11:42:36;;;;;;;10.07;2.00;;;25.50;39.20;;;;;;5036622;28;20037;-70
2021/05/27 11:45:05;;;;;;;10.02;2.15;;;25.50;39.40;;;;;;5035100;28;20022;-68
2021/05/27 11:47:31;;;;;;;11.68;2.38;;;25.50;39.20;;;;;;5035195;28;20120;-71
2021/05/27 11:50:05;;;;;;;11.63;2.25;;;25.50;39.70;;;;;;5036464;28;20144;-71
2021/05/27 11:52:31;;;;;;;6.70;1.98;;;25.50;41.20;;;;;;5036400;28;20088;-75
2021/05/27 11:54:57;;;;;;;10.98;2.25;;;25.50;40.00;;;;;;5036713;28;20092;-78
2021/05/27 11:57:44;;;;;;;7.65;2.40;;;25.60;40.00;;;;;;5036078;28;20029;-74
2021/05/27 12:00:15;;;;;;;6.20;1.77;;;25.70;40.00;;;;;;5036578;28;20489;-73
2021/05/27 12:02:52;;;;;;;10.30;1.70;;;25.60;39.60;;;;;;5035846;28;20525;-74
2021/05/27 12:05:21;;;;;;;9.30;2.10;;;25.50;38.20;;;;;;5036109;28;20049;-75
2021/05/27 12:08:13;;;;;;;14.75;2.25;;;25.50;38.20;;;;;;5036108;28;20067;-73
2021/05/27 12:10:47;;;;;;;9.15;2.28;;;25.50;38.50;;;;;;5036025;28;20025;-76
2021/05/27 12:13:21;;;;;;;7.13;2.40;;;25.50;40.10;;;;;;5035782;28;20021;-79
2021/05/27 12:15:48;;;;;;;5.68;1.80;;;25.50;40.30;;;;;;5035701;28;20104;-74
2021/05/27 12:18:18;;;;;;;10.95;1.85;;;25.50;39.90;;;;;;5035618;28;20512;-75
2021/05/27 12:20:50;;;;;;;5.47;1.83;;;25.50;40.50;;;;;;5035607;28;20065;-77
2021/05/27 12:23:19;;;;;;;7.10;2.03;;;25.50;40.90;;;;;;5035797;28;20045;-78
2021/05/27 12:25:50;;;;;;;5.47;1.90;;;25.50;40.60;;;;;;5036133;28;20021;-80
2021/05/27 12:28:17;;;;;;;7.78;1.90;;;25.50;39.00;;;;;;5018574;28;20036;-70
2021/05/27 12:30:56;;;;;;;9.35;2.05;;;25.50;40.10;;;;;;5035446;28;20038;-72
2021/05/27 12:33:25;;;;;;;25.35;2.88;;;25.50;40.30;;;;;;5035459;28;20348;-73
2021/05/27 12:35:52;;;;;;;11.77;2.67;;;25.50;40.30;;;;;;5035506;28;20095;-68
2021/05/27 12:38:29;;;;;;;7.47;1.90;;;25.50;40.10;;;;;;5034074;28;20029;-73
2021/05/27 12:41:00;;;;;;;5.97;1.63;;;25.60;40.40;;;;;;5017673;28;20030;-72
2021/05/27 12:44:29;;;;;;;9.93;2.22;;;25.70;40.40;;;;;;5037820;28;20037;-73
2021/05/27 12:46:45;;;;;;;8.13;1.95;;;25.70;39.60;;;;;;5036026;28;20502;-75
2021/05/27 12:49:11;;;;;;;8.23;2.20;;;25.70;39.60;;;;;;5034781;28;20032;-71
2021/05/27 12:51:40;;;;;;;8.75;2.28;;;25.70;40.90;;;;;;5034044;28;20053;-71
2021/05/27 12:54:06;;;;;;;6.35;1.73;;;25.70;41.10;;;;;;5035577;28;20029;-74
2021/05/27 12:56:33;;;;;;;10.20;1.98;;;25.60;40.80;;;;;;5035728;28;20030;-76
2021/05/27 12:59:03;;;;;;;6.70;1.58;;;25.60;40.70;;;;;;5037804;28;20100;-77
2021/05/27 13:01:39;;;;;;;7.07;1.60;;;25.50;39.40;;;;;;5039558;28;20470;-74
2021/05/27 13:04:38;;;;;;;6.60;1.45;;;25.40;40.70;;;;;;5035697;28;20041;-77